Time;durP1;ratioP1;P1;durP2;ratioP2;P2;SDS_P1;SDS_P2;PMS_P1;PMS_P2;Temp;Humidity;BMP_temperature;BMP_pressure;BME280_temperature;BME280_humidity;BME280_pressure;Samples;Min_cycle;Max_cycle;Signal;HPM_P1;HPM_P2
2022/08/09 00:01:27;;;;;;;1.33;1.23;;;22.60;57.10;;;;;;5032011;28;20207;-73
2022/08/09 00:03:53;;;;;;;1.60;0.90;;;22.60;57.00;;;;;;5031327;28;20203;-74
2022/08/09 00:06:18;;;;;;;2.28;1.67;;;22.60;57.10;;;;;;5032201;28;20176;-75
2022/08/09 00:08:47;;;;;;;1.38;1.20;;;22.60;57.10;;;;;;5031434;28;20212;-75
2022/08/09 00:11:13;;;;;;;1.58;1.38;;;22.60;57.10;;;;;;5030537;28;20168;-75
2022/08/09 00:13:39;;;;;;;2.05;1.02;;;22.60;57.10;;;;;;5031092;28;20211;-73
2022/08/09 00:16:04;;;;;;;1.80;1.40;;;22.60;57.10;;;;;;5031281;28;20257;-74
2022/08/09 00:18:30;;;;;;;1.33;1.20;;;22.60;57.10;;;;;;5032250;28;20175;-74
2022/08/09 00:20:56;;;;;;;1.33;1.05;;;22.60;57.10;;;;;;5034435;28;20186;-76
2022/08/09 00:23:21;;;;;;;1.98;1.20;;;22.60;57.10;;;;;;5034783;28;20207;-74
2022/08/09 00:25:47;;;;;;;1.55;1.33;;;22.60;57.20;;;;;;5033580;28;20168;-73
2022/08/09 00:28:12;;;;;;;1.30;1.20;;;22.60;57.10;;;;;;5034689;28;20175;-74
2022/08/09 00:30:38;;;;;;;3.25;1.35;;;22.60;57.20;;;;;;5039101;28;20513;-73
2022/08/09 00:33:04;;;;;;;1.23;1.13;;;22.50;57.10;;;;;;5041593;28;20187;-75
2022/08/09 00:35:29;;;;;;;1.98;1.30;;;22.50;57.10;;;;;;5042392;28;20188;-74
2022/08/09 00:37:55;;;;;;;3.38;1.45;;;22.50;57.10;;;;;;5041874;28;20176;-72
2022/08/09 00:40:20;;;;;;;2.45;1.52;;;22.50;57.20;;;;;;5040484;28;20184;-74
2022/08/09 00:42:46;;;;;;;1.35;1.25;;;22.50;57.10;;;;;;5041106;28;20537;-74
2022/08/09 00:45:12;;;;;;;1.98;1.45;;;22.50;57.20;;;;;;5041690;28;20238;-76
2022/08/09 00:47:37;;;;;;;1.95;1.20;;;22.50;57.10;;;;;;5041340;28;20198;-73
2022/08/09 00:50:03;;;;;;;1.52;1.17;;;22.50;57.20;;;;;;5040691;28;20577;-72
2022/08/09 00:52:29;;;;;;;1.33;1.23;;;22.50;57.10;;;;;;5039663;28;20176;-74
2022/08/09 00:54:55;;;;;;;1.27;1.10;;;22.50;57.20;;;;;;5039562;28;20176;-72
2022/08/09 00:57:21;;;;;;;1.48;1.30;;;22.50;57.20;;;;;;5039591;28;20259;-74
2022/08/09 00:59:47;;;;;;;1.13;1.05;;;22.50;57.20;;;;;;5037548;28;20257;-73
2022/08/09 01:02:21;;;;;;;1.92;1.33;;;22.50;57.20;;;;;;5039499;28;20222;-73
2022/08/09 01:04:52;;;;;;;1.17;1.08;;;22.50;57.20;;;;;;5039293;28;20271;-74
2022/08/09 01:07:23;;;;;;;1.17;1.10;;;22.50;57.20;;;;;;5034252;28;20171;-75
2022/08/09 01:09:58;;;;;;;1.00;1.00;;;22.50;57.20;;;;;;4999399;28;1018995;-76
2022/08/09 01:12:55;;;;;;;1.05;1.02;;;22.50;57.20;;;;;;5034319;28;20183;-75
2022/08/09 01:15:23;;;;;;;1.08;1.05;;;22.50;57.20;;;;;;5033590;28;20202;-75
2022/08/09 01:17:52;;;;;;;1.33;1.20;;;22.50;57.20;;;;;;5017489;28;20665;-74
2022/08/09 01:20:40;;;;;;;1.75;1.23;;;22.50;57.20;;;;;;5035392;28;20179;-73
2022/08/09 01:23:30;;;;;;;1.95;1.33;;;22.50;57.20;;;;;;5033149;28;20662;-72
2022/08/09 01:26:00;;;;;;;1.70;1.30;;;22.50;57.20;;;;;;4989443;28;20215;-73
2022/08/09 01:28:26;;;;;;;1.30;1.20;;;22.50;57.30;;;;;;5034469;28;20213;-73
2022/08/09 01:30:52;;;;;;;1.13;1.10;;;22.50;57.20;;;;;;5033897;28;20311;-73
2022/08/09 01:33:20;;;;;;;1.52;1.40;;;22.40;57.80;;;;;;5017359;28;20172;-74
2022/08/09 01:35:48;;;;;;;1.30;1.30;;;22.40;57.20;;;;;;5016212;28;20596;-74
2022/08/09 01:38:16;;;;;;;1.27;1.10;;;22.50;57.30;;;;;;5034636;28;20250;-75
2022/08/09 01:40:54;;;;;;;1.23;1.05;;;22.50;57.30;;;;;;5016770;28;20233;-74
2022/08/09 01:43:20;;;;;;;1.95;1.40;;;22.50;57.30;;;;;;5032855;28;20215;-75
2022/08/09 01:45:46;;;;;;;1.27;1.17;;;22.50;57.30;;;;;;5034519;28;20178;-74
2022/08/09 01:48:11;;;;;;;1.40;1.30;;;22.40;57.20;;;;;;5033254;28;20258;-73
2022/08/09 01:50:37;;;;;;;1.83;1.48;;;22.40;57.30;;;;;;5032454;28;20180;-74
2022/08/09 01:53:02;;;;;;;1.85;1.15;;;22.40;57.30;;;;;;5016484;28;20180;-72
2022/08/09 01:55:28;;;;;;;1.50;1.40;;;22.40;57.30;;;;;;5032920;28;20179;-71
2022/08/09 01:57:53;;;;;;;1.27;1.17;;;22.40;57.30;;;;;;5015791;28;20168;-72
2022/08/09 02:00:19;;;;;;;1.75;1.20;;;22.40;57.30;;;;;;5016664;28;20172;-73
2022/08/09 02:02:46;;;;;;;1.88;1.27;;;22.40;57.30;;;;;;5034060;28;20176;-73
2022/08/09 02:05:13;;;;;;;2.05;1.27;;;22.40;57.30;;;;;;5015735;28;20587;-77
2022/08/09 02:07:50;;;;;;;1.20;1.10;;;22.40;57.30;;;;;;5034100;28;20629;-76
2022/08/09 02:10:18;;;;;;;1.75;1.10;;;22.40;57.40;;;;;;5031865;28;20235;-75
2022/08/09 02:12:44;;;;;;;1.10;1.10;;;22.40;57.40;;;;;;5032459;28;20600;-73
2022/08/09 02:15:10;;;;;;;1.40;1.30;;;22.40;57.40;;;;;;5016322;28;20230;-76
2022/08/09 02:17:36;;;;;;;1.35;1.25;;;22.40;57.30;;;;;;5031955;28;20172;-73
2022/08/09 02:20:01;;;;;;;1.42;1.33;;;22.40;57.40;;;;;;5015783;28;20241;-74
2022/08/09 02:22:31;;;;;;;1.20;1.10;;;22.40;57.40;;;;;;5032143;28;20243;-74
2022/08/09 02:24:59;;;;;;;1.73;1.50;;;22.40;57.40;;;;;;5032881;28;20219;-72
2022/08/09 02:27:25;;;;;;;2.08;1.20;;;22.30;57.30;;;;;;5032494;28;20199;-73
2022/08/09 02:29:51;;;;;;;1.70;1.60;;;22.30;57.30;;;;;;5015775;28;20176;-73
2022/08/09 02:32:19;;;;;;;1.40;1.30;;;22.40;57.50;;;;;;5033026;28;20229;-74
2022/08/09 02:34:46;;;;;;;1.58;1.48;;;22.30;57.30;;;;;;5033168;28;20262;-73
2022/08/09 02:37:14;;;;;;;1.70;1.60;;;22.30;57.30;;;;;;5033351;28;20254;-75
2022/08/09 02:39:42;;;;;;;2.30;1.23;;;22.30;57.40;;;;;;5031774;28;20200;-73
2022/08/09 02:42:11;;;;;;;2.67;1.02;;;22.40;57.40;;;;;;5031383;28;20187;-75
2022/08/09 02:44:43;;;;;;;1.52;1.33;;;22.30;57.40;;;;;;5015819;28;20262;-72
2022/08/09 02:47:11;;;;;;;1.30;1.20;;;22.30;57.50;;;;;;5015204;28;20176;-76
2022/08/09 02:49:42;;;;;;;1.30;1.20;;;22.30;57.40;;;;;;5033021;28;20180;-72
2022/08/09 02:52:12;;;;;;;1.50;1.40;;;22.30;57.40;;;;;;5015372;28;20188;-73
2022/08/09 02:54:38;;;;;;;1.75;1.20;;;22.30;57.50;;;;;;5031128;28;20190;-73
2022/08/09 02:57:03;;;;;;;1.25;1.00;;;22.30;57.40;;;;;;5014983;28;20270;-72
2022/08/09 02:59:29;;;;;;;1.88;1.15;;;22.30;57.50;;;;;;5014517;28;20646;-73
2022/08/09 03:01:57;;;;;;;1.42;1.33;;;22.30;57.40;;;;;;5031357;28;20176;-73
2022/08/09 03:04:23;;;;;;;1.48;1.38;;;22.30;57.40;;;;;;5031415;28;20576;-74
2022/08/09 03:06:48;;;;;;;1.55;1.40;;;22.30;57.40;;;;;;5031915;28;20176;-76
2022/08/09 03:09:14;;;;;;;1.45;1.35;;;22.30;57.40;;;;;;5031388;28;20248;-75
2022/08/09 03:11:39;;;;;;;2.40;1.35;;;22.30;57.50;;;;;;5015251;28;20705;-75
2022/08/09 03:14:05;;;;;;;1.23;1.10;;;22.30;57.50;;;;;;5014200;28;20180;-75
2022/08/09 03:16:31;;;;;;;1.10;1.10;;;22.30;57.50;;;;;;5031239;28;20168;-74
2022/08/09 03:18:57;;;;;;;1.40;1.30;;;22.30;57.50;;;;;;5014686;28;20180;-74
2022/08/09 03:21:22;;;;;;;1.30;1.20;;;22.30;57.50;;;;;;5014162;28;20627;-73
2022/08/09 03:23:48;;;;;;;1.00;1.00;;;22.30;57.50;;;;;;5014391;28;20280;-72
2022/08/09 03:26:17;;;;;;;1.63;1.25;;;22.20;57.50;;;;;;5032425;28;20175;-74
2022/08/09 03:28:43;;;;;;;1.10;1.10;;;22.30;57.60;;;;;;5030534;28;20186;-72
2022/08/09 03:31:09;;;;;;;1.75;1.55;;;22.30;57.60;;;;;;5032288;28;20172;-75
2022/08/09 03:33:35;;;;;;;1.15;1.10;;;22.30;57.60;;;;;;5031187;28;20184;-75
2022/08/09 03:36:01;;;;;;;1.23;1.13;;;22.20;57.50;;;;;;5013718;28;20175;-73
2022/08/09 03:38:27;;;;;;;1.40;1.30;;;22.20;57.50;;;;;;5031029;28;20179;-75
2022/08/09 03:40:52;;;;;;;1.40;1.30;;;22.30;57.60;;;;;;5030621;28;20178;-74
2022/08/09 03:43:18;;;;;;;2.00;1.35;;;22.20;57.50;;;;;;5031089;28;20211;-75
2022/08/09 03:45:43;;;;;;;1.33;1.20;;;22.30;57.60;;;;;;5031800;28;20203;-73
2022/08/09 03:48:09;;;;;;;1.05;1.05;;;22.20;57.60;;;;;;5032266;28;20266;-72
2022/08/09 03:50:34;;;;;;;1.25;1.20;;;22.20;57.50;;;;;;5031340;28;20254;-73
2022/08/09 03:53:01;;;;;;;1.40;1.30;;;22.20;57.60;;;;;;5029606;28;20260;-72
2022/08/09 03:55:26;;;;;;;1.35;1.25;;;22.20;57.50;;;;;;5030795;28;20187;-73
2022/08/09 03:57:52;;;;;;;1.35;1.25;;;22.20;57.60;;;;;;5029878;28;20168;-74
2022/08/09 04:00:18;;;;;;;1.52;1.30;;;22.20;57.60;;;;;;5030627;28;20203;-73
2022/08/09 04:02:44;;;;;;;1.10;1.10;;;22.20;57.60;;;;;;5030049;28;20694;-74
2022/08/09 04:05:09;;;;;;;1.30;1.20;;;22.20;57.60;;;;;;5030870;28;20203;-75
2022/08/09 04:07:35;;;;;;;1.50;1.40;;;22.20;57.60;;;;;;5014190;28;20199;-76
2022/08/09 04:10:00;;;;;;;1.38;1.27;;;22.20;57.60;;;;;;5030822;28;20262;-76
2022/08/09 04:12:41;;;;;;;1.40;1.30;;;22.20;57.60;;;;;;5031853;28;20183;-75
2022/08/09 04:15:07;;;;;;;1.55;1.27;;;22.20;57.60;;;;;;5031777;28;20171;-76
2022/08/09 04:17:33;;;;;;;1.30;1.30;;;22.20;57.60;;;;;;5031342;28;20206;-75
2022/08/09 04:19:58;;;;;;;1.50;1.40;;;22.20;57.70;;;;;;5031895;28;20538;-75
2022/08/09 04:22:24;;;;;;;1.55;1.17;;;22.20;57.60;;;;;;5031928;28;20172;-75
2022/08/09 04:24:49;;;;;;;1.52;1.27;;;22.20;57.60;;;;;;5030798;28;20582;-74
2022/08/09 04:27:15;;;;;;;1.30;1.20;;;22.20;57.60;;;;;;5031714;28;20175;-76
2022/08/09 04:29:40;;;;;;;1.65;1.38;;;22.20;57.60;;;;;;5031778;28;20195;-76
2022/08/09 04:32:06;;;;;;;1.40;1.30;;;22.20;57.70;;;;;;5031137;28;20172;-76
2022/08/09 04:34:32;;;;;;;1.90;1.20;;;22.20;57.70;;;;;;5031952;28;20183;-75
2022/08/09 04:36:59;;;;;;;2.40;1.73;;;22.20;57.70;;;;;;5031824;28;20178;-75
2022/08/09 04:39:24;;;;;;;1.38;1.30;;;22.20;57.70;;;;;;5031014;28;20179;-75
2022/08/09 04:41:50;;;;;;;1.52;1.42;;;22.20;57.60;;;;;;5031483;28;20168;-74
2022/08/09 04:44:15;;;;;;;1.30;1.20;;;22.10;57.60;;;;;;5031393;28;20229;-75
2022/08/09 04:46:41;;;;;;;1.33;1.23;;;22.20;57.60;;;;;;5031133;28;20299;-74
2022/08/09 04:49:06;;;;;;;1.30;1.27;;;22.20;57.60;;;;;;5031700;28;20589;-74
2022/08/09 04:51:32;;;;;;;2.05;1.48;;;22.20;57.60;;;;;;5031508;28;20176;-74
2022/08/09 04:53:57;;;;;;;1.35;1.35;;;22.20;57.60;;;;;;5030782;28;20184;-72
2022/08/09 04:56:23;;;;;;;2.65;1.70;;;22.20;57.60;;;;;;5031542;28;20172;-74
2022/08/09 04:58:48;;;;;;;1.50;1.40;;;22.20;57.60;;;;;;5031187;28;20272;-73
2022/08/09 05:01:14;;;;;;;1.40;1.40;;;22.20;57.60;;;;;;5030651;28;20198;-73
2022/08/09 05:03:39;;;;;;;1.90;1.30;;;22.20;57.60;;;;;;5032170;28;20226;-72
2022/08/09 05:06:05;;;;;;;1.33;1.20;;;22.20;57.50;;;;;;5034350;28;20206;-72
2022/08/09 05:08:33;;;;;;;1.45;1.35;;;22.20;57.40;;;;;;5034842;28;21071;-75
2022/08/09 05:10:59;;;;;;;2.03;1.40;;;22.20;57.30;;;;;;5034748;28;20555;-71
2022/08/09 05:13:24;;;;;;;2.50;1.38;;;22.20;57.30;;;;;;5034126;28;20172;-71
2022/08/09 05:15:50;;;;;;;1.75;1.30;;;22.20;57.30;;;;;;5034598;28;20203;-72
2022/08/09 05:18:15;;;;;;;1.63;1.40;;;22.30;57.30;;;;;;5034736;28;20702;-71
2022/08/09 05:20:41;;;;;;;1.42;1.30;;;22.30;57.30;;;;;;5034200;28;20178;-72
2022/08/09 05:23:06;;;;;;;2.05;1.42;;;22.20;57.30;;;;;;5034505;28;20245;-72
2022/08/09 05:25:32;;;;;;;1.65;1.55;;;22.20;57.30;;;;;;5034525;28;20548;-70
2022/08/09 05:27:57;;;;;;;1.40;1.30;;;22.20;57.30;;;;;;5033733;28;20171;-71
2022/08/09 05:30:23;;;;;;;2.25;1.50;;;22.20;57.30;;;;;;5034798;28;20182;-71
2022/08/09 05:32:48;;;;;;;2.50;1.48;;;22.30;57.40;;;;;;5034522;28;20180;-70
2022/08/09 05:35:14;;;;;;;1.88;1.40;;;22.30;57.50;;;;;;5033921;28;20195;-70
2022/08/09 05:37:40;;;;;;;1.23;1.13;;;22.30;57.50;;;;;;5034583;28;20176;-70
2022/08/09 05:40:06;;;;;;;1.52;1.42;;;22.30;57.50;;;;;;5034298;28;20172;-76
2022/08/09 05:42:32;;;;;;;1.67;1.50;;;22.30;57.40;;;;;;5033499;28;20183;-75
2022/08/09 05:44:57;;;;;;;1.35;1.25;;;22.30;57.40;;;;;;5034210;28;20689;-75
2022/08/09 05:47:23;;;;;;;1.52;1.42;;;22.30;57.30;;;;;;5034355;28;20194;-76
2022/08/09 05:49:52;;;;;;;3.28;1.63;;;22.30;57.30;;;;;;5033484;28;20184;-75
2022/08/09 05:52:18;;;;;;;1.30;1.20;;;22.30;57.40;;;;;;5034172;28;20186;-76
2022/08/09 05:54:44;;;;;;;1.60;1.50;;;22.30;57.50;;;;;;5033964;28;20588;-75
2022/08/09 05:57:09;;;;;;;1.70;1.60;;;22.30;57.50;;;;;;5033385;28;20176;-74
2022/08/09 05:59:35;;;;;;;1.75;1.65;;;22.30;57.50;;;;;;5033931;28;20180;-72
2022/08/09 06:02:00;;;;;;;5.47;2.10;;;22.30;57.50;;;;;;5033767;28;20626;-74
2022/08/09 06:04:26;;;;;;;7.15;1.88;;;22.30;57.60;;;;;;5033259;28;20208;-76
2022/08/09 06:06:51;;;;;;;3.10;1.70;;;22.30;57.60;;;;;;5033788;28;20178;-76
2022/08/09 06:09:20;;;;;;;3.45;1.55;;;22.40;57.60;;;;;;5033055;28;20305;-73
2022/08/09 06:11:45;;;;;;;2.47;1.50;;;22.40;57.60;;;;;;5033594;28;20539;-75
2022/08/09 06:14:11;;;;;;;3.83;1.63;;;22.40;57.50;;;;;;5033974;28;20176;-76
2022/08/09 06:16:36;;;;;;;2.50;1.60;;;22.40;57.50;;;;;;5032043;28;20619;-75
2022/08/09 06:19:02;;;;;;;4.38;1.83;;;22.40;57.40;;;;;;5033699;28;20199;-76
2022/08/09 06:21:27;;;;;;;2.03;1.50;;;22.50;57.50;;;;;;5033533;28;20175;-75
2022/08/09 06:23:54;;;;;;;3.88;1.60;;;22.40;57.50;;;;;;5032580;28;20708;-76
2022/08/09 06:26:21;;;;;;;1.98;1.45;;;22.40;57.50;;;;;;5032741;28;20230;-76
2022/08/09 06:28:47;;;;;;;4.35;1.50;;;22.40;57.50;;;;;;5031930;28;20176;-74
2022/08/09 06:31:12;;;;;;;3.47;1.50;;;22.40;57.50;;;;;;5032211;28;20262;-75
2022/08/09 06:33:38;;;;;;;3.25;1.70;;;22.40;57.50;;;;;;5032804;28;20267;-76
2022/08/09 06:36:04;;;;;;;2.70;1.77;;;22.40;57.50;;;;;;5033072;28;20198;-76
2022/08/09 06:38:29;;;;;;;2.55;1.67;;;22.40;57.50;;;;;;5032564;28;20674;-77
2022/08/09 06:40:55;;;;;;;1.85;1.70;;;22.40;57.50;;;;;;5033003;28;20318;-76
2022/08/09 06:43:21;;;;;;;2.78;1.40;;;22.50;57.50;;;;;;5033357;28;20199;-77
2022/08/09 06:45:46;;;;;;;2.08;1.80;;;22.40;57.40;;;;;;5032324;28;20544;-77
2022/08/09 06:48:12;;;;;;;1.40;1.30;;;22.40;57.40;;;;;;5033210;28;20649;-77
2022/08/09 06:50:37;;;;;;;1.52;1.42;;;22.40;57.40;;;;;;5033126;28;20184;-74
2022/08/09 06:53:03;;;;;;;1.98;1.75;;;22.40;57.40;;;;;;5032229;28;20667;-75
2022/08/09 06:55:31;;;;;;;3.17;1.50;;;22.40;57.40;;;;;;5032925;28;20183;-74
2022/08/09 06:58:00;;;;;;;1.60;1.50;;;22.50;57.40;;;;;;5032774;28;20634;-75
2022/08/09 07:00:26;;;;;;;2.15;1.40;;;22.50;57.40;;;;;;5032324;28;20202;-75
2022/08/09 07:02:51;;;;;;;2.75;1.48;;;22.50;57.40;;;;;;5032912;28;20657;-75
2022/08/09 07:05:17;;;;;;;1.88;1.55;;;22.50;57.50;;;;;;5032623;28;20581;-75
2022/08/09 07:07:43;;;;;;;2.38;1.30;;;22.50;57.50;;;;;;5032010;28;20167;-75
2022/08/09 07:10:09;;;;;;;3.67;1.73;;;22.50;57.50;;;;;;5032307;28;20227;-70
2022/08/09 07:12:35;;;;;;;1.80;1.27;;;22.50;57.50;;;;;;5031919;28;20174;-70
2022/08/09 07:15:00;;;;;;;3.55;1.30;;;22.60;57.50;;;;;;5032724;28;20262;-70
2022/08/09 07:17:26;;;;;;;4.20;1.48;;;22.60;57.30;;;;;;5032582;28;20607;-70
2022/08/09 07:19:51;;;;;;;2.95;1.38;;;22.60;57.30;;;;;;5031759;28;20190;-70
2022/08/09 07:22:17;;;;;;;1.88;1.30;;;22.70;57.30;;;;;;5032460;28;20191;-71
2022/08/09 07:24:43;;;;;;;5.22;1.95;;;22.70;57.30;;;;;;5032375;28;20222;-69
2022/08/09 07:27:10;;;;;;;1.65;1.55;;;22.70;57.30;;;;;;5031473;28;20180;-71
2022/08/09 07:29:35;;;;;;;3.55;1.63;;;22.70;57.30;;;;;;5032565;28;20184;-72
2022/08/09 07:32:02;;;;;;;2.25;1.70;;;22.80;57.40;;;;;;5032384;28;20229;-76
2022/08/09 07:34:28;;;;;;;2.00;1.38;;;22.70;57.30;;;;;;5031624;28;20554;-73
2022/08/09 07:36:53;;;;;;;2.38;1.63;;;22.80;57.50;;;;;;5032044;28;20176;-72
2022/08/09 07:39:20;;;;;;;3.95;1.88;;;22.80;57.40;;;;;;5032089;28;20182;-72
2022/08/09 07:41:45;;;;;;;2.70;1.80;;;22.80;57.40;;;;;;5031237;28;20641;-73
2022/08/09 07:44:11;;;;;;;3.88;1.50;;;22.80;57.50;;;;;;5032245;28;20211;-71
2022/08/09 07:46:36;;;;;;;3.47;1.73;;;22.80;57.40;;;;;;5032257;28;20176;-71
2022/08/09 07:49:02;;;;;;;3.90;1.58;;;22.80;57.40;;;;;;5031354;28;20175;-71
2022/08/09 07:51:28;;;;;;;3.22;1.35;;;22.90;57.40;;;;;;5031981;28;20180;-71
2022/08/09 07:53:53;;;;;;;1.80;1.45;;;22.90;57.40;;;;;;5031910;28;20179;-70
2022/08/09 07:56:19;;;;;;;3.05;1.80;;;22.90;57.40;;;;;;5031417;28;20171;-71
2022/08/09 07:58:44;;;;;;;3.03;1.40;;;22.90;57.30;;;;;;5032018;28;20176;-71
2022/08/09 08:01:10;;;;;;;2.13;1.40;;;22.90;57.30;;;;;;5032231;28;20265;-72
2022/08/09 08:03:36;;;;;;;2.35;1.33;;;22.90;57.20;;;;;;5031329;28;20216;-71
2022/08/09 08:06:02;;;;;;;2.60;1.60;;;23.00;57.30;;;;;;5031841;28;20210;-73
2022/08/09 08:08:28;;;;;;;2.13;1.40;;;23.00;57.20;;;;;;5031720;28;20650;-68
2022/08/09 08:10:54;;;;;;;2.13;1.40;;;23.00;57.10;;;;;;5030980;28;20591;-68
2022/08/09 08:13:19;;;;;;;4.25;1.50;;;23.00;57.10;;;;;;5032108;28;20207;-67
2022/08/09 08:15:45;;;;;;;2.85;1.65;;;23.00;57.10;;;;;;5031875;28;20270;-68
2022/08/09 08:18:10;;;;;;;2.08;1.30;;;23.00;57.00;;;;;;5031254;28;20170;-68
2022/08/09 08:20:36;;;;;;;2.05;1.40;;;23.10;57.00;;;;;;5031728;28;20258;-68
2022/08/09 08:23:03;;;;;;;2.63;1.58;;;23.10;57.00;;;;;;5030389;28;20199;-70
2022/08/09 08:25:28;;;;;;;2.72;1.38;;;23.10;57.00;;;;;;5031764;28;20542;-67
2022/08/09 08:27:54;;;;;;;2.60;1.33;;;23.10;57.00;;;;;;5031589;28;20638;-68
2022/08/09 08:30:19;;;;;;;3.33;1.40;;;23.10;57.00;;;;;;5031065;28;20180;-69
2022/08/09 08:32:45;;;;;;;2.13;1.40;;;23.10;56.90;;;;;;5031468;28;20704;-71
2022/08/09 08:35:10;;;;;;;2.42;1.55;;;23.10;56.90;;;;;;5031741;28;20543;-68
2022/08/09 08:37:36;;;;;;;2.35;1.20;;;23.20;56.90;;;;;;5030806;28;20605;-69
2022/08/09 08:40:03;;;;;;;4.90;1.50;;;23.20;56.90;;;;;;5034426;28;20529;-70
2022/08/09 08:42:29;;;;;;;2.60;1.10;;;23.20;56.80;;;;;;5035467;28;20176;-70
2022/08/09 08:44:59;;;;;;;2.72;1.33;;;23.20;56.80;;;;;;5033403;28;20704;-69
2022/08/09 08:47:25;;;;;;;3.10;1.50;;;23.20;56.70;;;;;;5035218;28;20663;-69
2022/08/09 08:49:51;;;;;;;3.47;1.30;;;23.20;56.70;;;;;;5035093;28;20273;-69
2022/08/09 08:52:18;;;;;;;2.80;1.38;;;23.20;56.50;;;;;;5033197;28;20224;-70
2022/08/09 08:54:43;;;;;;;3.05;1.45;;;23.30;56.50;;;;;;5038859;28;20236;-72
2022/08/09 08:57:09;;;;;;;1.88;1.75;;;23.30;56.40;;;;;;5036569;28;20650;-69
2022/08/09 08:59:34;;;;;;;3.47;1.58;;;23.30;56.30;;;;;;5033287;28;20171;-69
2022/08/09 09:02:00;;;;;;;1.17;1.05;;;23.30;56.30;;;;;;5033579;28;20176;-70
2022/08/09 09:04:28;;;;;;;1.98;1.20;;;23.40;56.30;;;;;;5017233;28;20701;-73
2022/08/09 09:06:56;;;;;;;3.90;1.63;;;23.40;56.30;;;;;;5034004;28;20666;-72
2022/08/09 09:09:22;;;;;;;5.15;1.73;;;23.40;56.30;;;;;;5034908;28;20306;-71
2022/08/09 09:11:47;;;;;;;4.30;1.40;;;23.40;56.20;;;;;;5033663;28;20258;-70
2022/08/09 09:14:16;;;;;;;5.00;1.60;;;23.40;56.30;;;;;;5016723;28;20647;-69
2022/08/09 09:16:42;;;;;;;2.70;1.50;;;23.50;56.40;;;;;;5035009;28;20186;-71
2022/08/09 09:19:08;;;;;;;3.88;1.27;;;23.50;56.40;;;;;;5034102;28;20646;-70
2022/08/09 09:21:34;;;;;;;3.10;1.10;;;23.50;56.40;;;;;;5034935;28;20180;-70
2022/08/09 09:24:03;;;;;;;7.60;1.65;;;23.50;56.40;;;;;;5033544;28;20218;-68
2022/08/09 09:26:29;;;;;;;2.03;1.20;;;23.60;56.40;;;;;;5034037;28;20485;-71
2022/08/09 09:28:55;;;;;;;1.92;1.23;;;23.60;56.40;;;;;;5034424;28;20645;-68
2022/08/09 09:31:22;;;;;;;4.35;1.50;;;23.60;56.30;;;;;;5034438;28;20180;-70
2022/08/09 09:33:47;;;;;;;5.10;1.63;;;23.60;56.30;;;;;;5033641;28;20184;-68
2022/08/09 09:36:13;;;;;;;3.92;1.13;;;23.60;56.40;;;;;;5034687;28;20168;-69
2022/08/09 09:38:58;;;;;;;8.32;1.40;;;23.70;56.50;;;;;;5034410;28;20622;-71
2022/08/09 09:41:26;;;;;;;2.30;1.17;;;23.70;56.30;;;;;;5033797;28;20267;-71
2022/08/09 09:43:53;;;;;;;1.50;1.40;;;23.60;56.10;;;;;;5034155;28;20235;-71
2022/08/09 09:46:18;;;;;;;2.25;1.00;;;23.60;56.10;;;;;;5034150;28;20180;-71
2022/08/09 09:49:02;;;;;;;1.38;1.05;;;23.60;56.00;;;;;;5032106;28;20585;-71
2022/08/09 09:51:30;;;;;;;3.42;1.67;;;23.60;55.90;;;;;;5034191;28;20176;-70
2022/08/09 09:54:09;;;;;;;1.38;1.10;;;23.60;55.60;;;;;;5032923;28;20211;-71
2022/08/09 09:56:36;;;;;;;4.53;1.23;;;23.70;55.70;;;;;;5033320;28;20214;-69
2022/08/09 09:59:02;;;;;;;2.85;1.00;;;23.70;55.60;;;;;;5034137;28;20195;-69
2022/08/09 10:01:28;;;;;;;2.92;1.63;;;23.70;55.50;;;;;;5033489;28;20179;-71
2022/08/09 10:03:54;;;;;;;3.13;1.00;;;23.70;55.50;;;;;;5033768;28;20610;-70
2022/08/09 10:06:19;;;;;;;2.05;0.93;;;23.80;55.50;;;;;;5034002;28;20545;-71
2022/08/09 10:08:46;;;;;;;3.05;1.38;;;23.70;55.30;;;;;;5032860;28;20723;-71
2022/08/09 10:11:19;;;;;;;1.70;1.00;;;23.80;55.40;;;;;;5033830;28;20258;-69
2022/08/09 10:13:46;;;;;;;1.58;1.05;;;23.80;55.30;;;;;;5033604;28;20214;-71
2022/08/09 10:16:11;;;;;;;1.35;1.10;;;23.80;55.20;;;;;;5031998;28;20191;-69
2022/08/09 10:18:37;;;;;;;3.70;0.90;;;23.70;55.10;;;;;;5033779;28;20180;-71
2022/08/09 10:21:09;;;;;;;3.15;1.00;;;23.80;55.00;;;;;;5032309;28;20553;-71
2022/08/09 10:23:35;;;;;;;1.00;0.77;;;23.80;55.00;;;;;;5032748;28;20211;-71
2022/08/09 10:26:01;;;;;;;2.78;1.10;;;23.80;54.90;;;;;;5033299;28;20187;-71
2022/08/09 10:28:31;;;;;;;3.95;1.20;;;23.80;54.90;;;;;;5032219;28;20172;-72
2022/08/09 10:30:57;;;;;;;4.25;1.38;;;23.80;54.80;;;;;;5034135;28;20176;-71
2022/08/09 10:33:23;;;;;;;2.10;0.90;;;23.80;54.80;;;;;;5033438;28;20195;-73
2022/08/09 10:35:49;;;;;;;1.77;1.13;;;23.80;54.80;;;;;;5033208;28;20171;-68
2022/08/09 10:38:16;;;;;;;3.47;1.25;;;23.70;54.70;;;;;;5031225;28;20180;-70
2022/08/09 10:40:43;;;;;;;4.97;1.15;;;23.70;54.60;;;;;;5015755;28;20182;-68
2022/08/09 10:43:08;;;;;;;1.50;1.00;;;23.70;54.60;;;;;;5031888;28;20188;-69
2022/08/09 10:45:34;;;;;;;2.75;1.10;;;23.80;54.50;;;;;;5031151;28;20194;-68
2022/08/09 10:48:13;;;;;;;3.10;1.27;;;23.80;54.40;;;;;;5032975;28;20696;-68
2022/08/09 10:53:42;;;;;;;1.65;0.90;;;23.80;54.30;;;;;;5032160;28;20194;-75
2022/08/09 10:56:17;;;;;;;2.42;1.40;;;23.80;54.60;;;;;;5033068;28;20270;-76
2022/08/09 10:58:43;;;;;;;1.88;1.45;;;23.80;54.50;;;;;;5032479;28;20175;-58
2022/08/09 11:01:30;;;;;;;1.10;0.88;;;23.70;54.50;;;;;;5032507;28;20187;-59
2022/08/09 11:04:08;;;;;;;1.90;0.98;;;23.70;54.60;;;;;;5032738;28;20252;-60
2022/08/09 11:06:38;;;;;;;2.65;1.27;;;23.70;54.70;;;;;;5032038;28;20175;-59
2022/08/09 11:09:04;;;;;;;6.55;1.58;;;23.60;54.70;;;;;;5032458;28;20228;-59
2022/08/09 11:11:59;;;;;;;1.65;1.15;;;23.60;54.70;;;;;;5032538;28;20657;-58
2022/08/09 11:14:34;;;;;;;2.58;1.25;;;23.60;54.60;;;;;;5032727;28;20176;-58
2022/08/09 11:17:00;;;;;;;4.30;1.05;;;23.60;54.60;;;;;;5032537;28;20187;-58
2022/08/09 11:19:52;;;;;;;1.95;1.10;;;23.60;54.60;;;;;;5031823;28;20266;-58
2022/08/09 11:22:18;;;;;;;1.63;0.93;;;23.60;54.60;;;;;;5029974;28;20190;-60
2022/08/09 11:25:11;;;;;;;3.53;1.20;;;23.60;54.60;;;;;;5032381;28;20219;-59
2022/08/09 11:27:38;;;;;;;1.67;0.90;;;23.60;54.70;;;;;;5031753;28;20625;-57
2022/08/09 11:30:07;;;;;;;1.92;0.98;;;23.60;54.70;;;;;;5032307;28;20190;-59
2022/08/09 11:32:38;;;;;;;2.83;1.10;;;23.50;54.60;;;;;;5032194;28;20184;-59
2022/08/09 11:35:26;;;;;;;1.27;0.93;;;23.60;54.70;;;;;;5031426;28;20574;-59
2022/08/09 11:37:53;;;;;;;1.60;0.90;;;23.60;54.70;;;;;;5032187;28;20176;-57
2022/08/09 11:40:30;;;;;;;0.93;0.90;;;23.60;54.70;;;;;;5031492;28;20180;-59
2022/08/09 11:42:56;;;;;;;2.55;1.00;;;23.60;54.60;;;;;;5031968;28;20633;-59
2022/08/09 11:45:29;;;;;;;2.67;0.80;;;23.50;54.60;;;;;;5032192;28;20302;-60
2022/08/09 11:47:57;;;;;;;1.23;0.80;;;23.60;54.60;;;;;;5032160;28;20207;-59
2022/08/09 11:50:22;;;;;;;3.60;0.85;;;23.60;54.40;;;;;;5032144;28;20216;-60
2022/08/09 11:52:57;;;;;;;1.17;0.95;;;23.60;54.10;;;;;;5032029;28;20207;-60
2022/08/09 11:55:36;;;;;;;3.50;1.48;;;23.60;54.30;;;;;;5031369;28;20258;-60
2022/08/09 11:58:12;;;;;;;4.10;1.17;;;23.50;54.20;;;;;;5031880;28;20503;-60
2022/08/09 12:00:46;;;;;;;1.05;0.82;;;23.50;54.20;;;;;;5032171;28;20179;-60
2022/08/09 12:03:14;;;;;;;0.95;0.75;;;23.50;54.20;;;;;;5030124;28;20474;-60
2022/08/09 12:05:40;;;;;;;1.63;1.08;;;23.50;54.20;;;;;;5032051;28;20600;-60
2022/08/09 12:08:08;;;;;;;0.73;0.73;;;23.50;54.20;;;;;;5029750;28;20657;-60
2022/08/09 12:10:34;;;;;;;0.90;0.70;;;23.50;54.20;;;;;;5031703;28;20242;-60
2022/08/09 12:13:02;;;;;;;1.67;0.90;;;23.50;54.20;;;;;;5031933;28;20259;-60
2022/08/09 12:15:28;;;;;;;0.82;0.82;;;23.50;54.10;;;;;;5034627;28;20746;-60
2022/08/09 12:17:53;;;;;;;1.02;0.90;;;23.50;54.10;;;;;;5035762;28;20271;-60
2022/08/09 12:20:20;;;;;;;1.48;0.70;;;23.50;54.10;;;;;;5035725;28;20174;-60
2022/08/09 12:22:46;;;;;;;1.02;0.93;;;23.50;54.00;;;;;;5035093;28;20190;-60
2022/08/09 12:25:13;;;;;;;1.17;0.77;;;23.50;54.00;;;;;;5035712;28;20333;-60
2022/08/09 12:27:38;;;;;;;1.60;0.90;;;23.50;54.00;;;;;;5035723;28;20665;-60
2022/08/09 12:30:06;;;;;;;1.13;0.88;;;23.60;54.00;;;;;;5033549;28;20176;-60
2022/08/09 12:32:31;;;;;;;1.88;0.80;;;23.50;54.00;;;;;;5035745;28;20190;-60
2022/08/09 12:35:00;;;;;;;1.02;0.93;;;23.50;54.00;;;;;;5035551;28;20183;-60
2022/08/09 12:37:38;;;;;;;0.98;0.82;;;23.50;54.00;;;;;;5034956;28;20191;-59
2022/08/09 12:40:09;;;;;;;1.17;0.75;;;23.50;53.90;;;;;;5035497;28;20225;-60
2022/08/09 12:42:34;;;;;;;1.08;0.80;;;23.50;53.90;;;;;;5035537;28;20665;-60
2022/08/09 12:45:00;;;;;;;0.75;0.75;;;23.50;53.90;;;;;;5033232;28;20223;-60
2022/08/09 12:47:26;;;;;;;1.58;0.90;;;23.50;53.90;;;;;;5034019;28;20172;-60
2022/08/09 12:52:40;;;;;;;0.88;0.80;;;23.60;53.90;;;;;;5035349;28;20271;-60
2022/08/09 12:55:08;;;;;;;1.50;0.90;;;23.60;53.90;;;;;;5035059;28;20180;-59